Time;durP1;ratioP1;P1;durP2;ratioP2;P2;SDS_P1;SDS_P2;PMS_P1;PMS_P2;Temp;Humidity;BMP_temperature;BMP_pressure;BME280_temperature;BME280_humidity;BME280_pressure;Samples;Min_cycle;Max_cycle;Signal;HPM_P1;HPM_P2
2023/01/12 00:01:50;;;;;;;13.60;3.17;;;;;;;8.99;80.88;99834.50;5072722;28;20063;-61
2023/01/12 00:04:17;;;;;;;10.73;2.72;;;;;;;8.98;81.09;99817.03;5072676;28;20051;-62
2023/01/12 00:06:45;;;;;;;5.68;1.83;;;;;;;8.90;80.48;99815.88;5072684;28;20489;-61
2023/01/12 00:09:13;;;;;;;9.25;2.33;;;;;;;8.97;80.64;99809.84;5072889;28;20045;-62
2023/01/12 00:11:42;;;;;;;9.55;2.15;;;;;;;8.99;80.45;99809.50;5062210;28;20052;-61
2023/01/12 00:14:10;;;;;;;10.57;2.78;;;;;;;9.02;79.75;99822.78;5072833;28;20048;-61
2023/01/12 00:16:38;;;;;;;9.88;2.15;;;;;;;9.05;79.52;99816.56;5073331;28;20052;-61
2023/01/12 00:19:11;;;;;;;9.65;2.65;;;;;;;9.11;80.69;99799.44;5072525;28;20564;-62
2023/01/12 00:21:58;;;;;;;8.13;2.15;;;;;;;9.13;79.41;99794.41;5073117;28;20374;-61
2023/01/12 00:24:26;;;;;;;10.90;2.47;;;;;;;9.14;79.02;99792.44;5069562;28;20405;-61
2023/01/12 00:26:58;;;;;;;9.80;2.30;;;;;;;9.14;78.93;99807.13;5070112;28;20052;-60
2023/01/12 00:29:27;;;;;;;10.23;2.70;;;;;;;9.16;80.29;99797.66;5072536;28;20381;-61
2023/01/12 00:31:55;;;;;;;8.00;2.40;;;;;;;9.13;79.20;99799.94;5071920;28;20409;-61
2023/01/12 00:34:23;;;;;;;7.32;2.25;;;;;;;9.21;79.61;99817.78;5072920;28;20487;-61
2023/01/12 00:36:54;;;;;;;9.75;2.45;;;;;;;9.18;80.40;99804.53;5072614;28;20052;-60
2023/01/12 00:39:22;;;;;;;12.65;2.67;;;;;;;9.19;80.82;99808.94;5072426;28;20070;-61
2023/01/12 00:47:20;;;;;;;8.40;2.45;;;;;;;9.16;81.08;99825.47;5056513;28;20060;-61
2023/01/12 00:49:47;;;;;;;12.48;2.88;;;;;;;9.05;82.11;99805.44;5051745;28;20048;-60
2023/01/12 00:52:17;;;;;;;11.57;2.70;;;;;;;9.11;82.80;99810.56;5052467;28;20056;-60
2023/01/12 00:54:44;;;;;;;9.45;2.33;;;;;;;9.18;81.78;99803.72;5051114;28;20064;-60
2023/01/12 00:57:13;;;;;;;8.68;2.15;;;;;;;9.16;82.07;99789.34;5069475;28;20409;-59
2023/01/12 00:59:43;;;;;;;9.43;2.58;;;;;;;9.19;81.64;99786.72;5072222;28;20052;-60
2023/01/12 01:02:11;;;;;;;8.77;2.80;;;;;;;9.24;82.16;99789.34;5061862;28;20064;-60
2023/01/12 01:04:38;;;;;;;8.13;2.00;;;;;;;9.21;80.48;99781.66;5052044;28;20049;-60
2023/01/12 01:07:08;;;;;;;6.65;2.20;;;;;;;9.25;81.50;99774.31;5051863;28;20057;-60
2023/01/12 01:09:35;;;;;;;7.05;2.00;;;;;;;9.31;81.57;99761.09;5052756;28;20052;-60
2023/01/12 01:12:06;;;;;;;9.50;2.45;;;;;;;9.33;81.50;99773.50;5070494;28;20508;-60
2023/01/12 01:14:33;;;;;;;5.95;1.77;;;;;;;9.34;81.40;99766.84;5072272;28;20057;-60
2023/01/12 01:17:03;;;;;;;7.07;2.20;;;;;;;9.38;79.73;99772.53;5072175;28;20059;-60
2023/01/12 01:19:32;;;;;;;6.28;2.00;;;;;;;9.28;79.69;99789.50;5071818;28;20413;-60
2023/01/12 01:21:59;;;;;;;6.47;1.70;;;;;;;9.30;81.12;99760.28;5072083;28;20500;-60
2023/01/12 01:24:27;;;;;;;6.10;2.33;;;;;;;9.39;80.97;99784.50;5070093;28;20045;-60
2023/01/12 01:26:56;;;;;;;10.23;2.83;;;;;;;9.46;80.05;99773.72;5072367;28;20052;-60
2023/01/12 01:29:23;;;;;;;5.57;2.67;;;;;;;9.42;80.59;99786.63;5075591;28;20056;-60
2023/01/12 01:31:54;;;;;;;6.95;2.30;;;;;;;9.14;82.80;99793.25;5075908;28;20059;-60
2023/01/12 01:34:23;;;;;;;8.88;2.83;;;;;;;9.11;83.93;99774.44;5075430;28;20409;-60
2023/01/12 01:36:53;;;;;;;10.93;3.58;;;;;;;9.12;83.30;99764.16;5075820;28;20055;-60
2023/01/12 01:39:20;;;;;;;;;;;;;;;8.99;86.22;99790.06;5067314;28;20048;-60
2023/01/12 01:41:51;;;;;;;7.97;2.83;;;;;;;8.81;86.84;99784.44;5074991;28;20234;-60
2023/01/12 01:44:49;;;;;;;11.05;3.33;;;;;;;8.97;86.66;99778.47;5075811;28;20049;-60
2023/01/12 01:47:25;;;;;;;6.35;2.67;;;;;;;9.09;85.08;99775.88;5074594;28;20052;-60
2023/01/12 01:49:56;;;;;;;7.38;2.78;;;;;;;9.14;85.36;99781.31;5075370;28;20480;-59
2023/01/12 01:52:27;;;;;;;6.40;2.60;;;;;;;9.17;84.91;99783.44;5064864;28;20398;-59
2023/01/12 01:54:59;;;;;;;10.63;3.08;;;;;;;9.16;84.66;99769.88;5059497;28;20420;-59
2023/01/12 01:57:32;;;;;;;8.38;2.65;;;;;;;9.24;83.97;99761.56;5075321;28;20049;-59
2023/01/12 02:00:02;;;;;;;6.38;2.63;;;;;;;9.26;83.53;99773.19;5074859;28;20475;-59
2023/01/12 02:02:29;;;;;;;8.70;2.85;;;;;;;9.30;83.44;99762.22;5074887;28;20067;-59
2023/01/12 02:04:58;;;;;;;10.98;2.33;;;;;;;9.30;83.18;99765.00;5060658;28;20049;-61
2023/01/12 02:07:25;;;;;;;8.15;2.97;;;;;;;9.37;83.56;99761.75;5054739;28;20056;-59
2023/01/12 02:09:52;;;;;;;8.50;2.80;;;;;;;9.41;82.48;99757.16;5071986;28;20067;-60
2023/01/12 02:18:03;;;;;;;7.82;3.00;;;;;;;9.53;81.67;99730.41;5080904;28;20064;-59
2023/01/12 02:20:56;;;;;;;7.65;2.90;;;;;;;9.50;80.84;99719.91;5074942;28;20500;-60
2023/01/12 02:24:07;;;;;;;8.32;2.60;;;;;;;9.55;80.30;99707.81;5068615;28;20044;-59
2023/01/12 02:27:19;;;;;;;8.95;2.97;;;;;;;9.62;81.68;99716.50;5055294;28;20052;-58
2023/01/12 02:30:12;;;;;;;8.50;2.63;;;;;;;9.64;80.29;99711.44;5074654;28;20051;-59
2023/01/12 02:32:52;;;;;;;7.88;2.50;;;;;;;9.61;80.72;99709.28;5072697;28;20063;-59
2023/01/12 02:35:22;;;;;;;;;;;;;;;9.65;79.38;99728.91;5074783;28;20409;-59
2023/01/12 02:37:58;;;;;;;7.35;2.50;;;;;;;9.64;80.53;99705.88;5067664;28;19931;-60
2023/01/12 02:40:33;;;;;;;8.73;2.63;;;;;;;9.67;80.59;99707.16;5074620;28;20060;-60
2023/01/12 02:43:05;;;;;;;8.23;2.60;;;;;;;9.67;79.56;99694.06;5074615;28;20052;-59
2023/01/12 02:45:41;;;;;;;9.00;2.88;;;;;;;9.69;80.26;99702.09;5056679;28;20064;-60
2023/01/12 02:48:20;;;;;;;8.52;2.90;;;;;;;9.69;81.31;99702.09;5062153;28;20059;-59
2023/01/12 02:50:54;;;;;;;10.77;3.37;;;;;;;9.69;79.41;99699.31;5074511;28;20382;-60
2023/01/12 02:53:27;;;;;;;12.30;3.17;;;;;;;9.74;79.79;99694.41;5064861;28;21018;-59
2023/01/12 02:55:56;;;;;;;11.25;3.08;;;;;;;9.77;80.04;99704.06;5073964;28;20053;-58
2023/01/12 02:58:28;;;;;;;17.42;3.72;;;;;;;9.69;80.04;99675.09;5074539;28;20063;-59
2023/01/12 03:00:59;;;;;;;13.55;3.28;;;;;;;9.65;80.69;99687.22;5071213;28;20481;-59
2023/01/12 03:03:29;;;;;;;13.52;3.10;;;;;;;9.73;80.34;99684.41;5053900;28;20061;-58
2023/01/12 03:05:59;;;;;;;10.32;3.20;;;;;;;9.65;80.08;99679.69;5053752;28;20473;-59
2023/01/12 03:08:29;;;;;;;14.40;2.95;;;;;;;9.63;80.47;99670.84;5059906;28;20045;-59
2023/01/12 03:11:06;;;;;;;8.15;2.45;;;;;;;9.62;79.78;99677.56;5073883;28;20057;-59
2023/01/12 03:13:37;;;;;;;10.05;3.20;;;;;;;9.57;80.35;99674.13;5074025;28;20052;-60
2023/01/12 03:16:08;;;;;;;13.73;3.88;;;;;;;9.61;81.53;99670.34;5073679;28;20044;-59
2023/01/12 03:18:40;;;;;;;10.63;3.35;;;;;;;9.42;82.36;99672.66;5073576;28;20060;-59
2023/01/12 03:21:13;;;;;;;11.10;3.00;;;;;;;9.09;84.78;99664.75;5073678;28;20473;-59
2023/01/12 03:23:47;;;;;;;13.48;4.05;;;;;;;8.88;86.14;99670.94;5069200;28;20052;-59
2023/01/12 03:26:17;;;;;;;14.90;3.25;;;;;;;8.84;89.01;99658.84;5073546;28;20053;-60
2023/01/12 03:28:53;;;;;;;15.35;3.30;;;;;;;8.88;88.67;99657.06;5073678;28;20049;-60
2023/01/12 03:31:23;;;;;;;13.00;2.97;;;;;;;8.82;89.93;99649.19;5073429;28;20059;-60
2023/01/12 03:33:51;;;;;;;10.32;2.92;;;;;;;8.92;88.89;99643.34;5073247;28;20052;-59
2023/01/12 03:36:24;;;;;;;13.90;3.08;;;;;;;8.86;89.24;99641.84;5072926;28;20052;-61
2023/01/12 03:39:07;;;;;;;10.82;2.88;;;;;;;8.95;90.04;99634.38;5065222;28;20056;-61
2023/01/12 03:41:45;;;;;;;9.93;3.05;;;;;;;9.01;88.67;99629.44;5073358;28;20052;-60
2023/01/12 03:44:21;;;;;;;10.60;2.92;;;;;;;9.06;89.93;99626.53;5073157;28;20056;-60
2023/01/12 03:46:55;;;;;;;8.98;2.90;;;;;;;9.04;88.52;99639.94;5072467;28;20066;-61
2023/01/12 03:49:32;;;;;;;16.52;3.17;;;;;;;8.91;89.77;99627.81;5073105;28;20052;-60
2023/01/12 03:52:01;;;;;;;10.38;2.45;;;;;;;8.92;89.55;99633.06;5061642;28;20477;-64
2023/01/12 03:54:29;;;;;;;;;;;;;;;8.95;90.62;99617.69;5053528;28;20485;-64
2023/01/12 03:56:57;;;;;;;7.53;2.33;;;;;;;8.92;89.97;99618.34;5053927;28;20266;-64
2023/01/12 03:59:25;;;;;;;7.50;2.75;;;;;;;8.87;89.46;99608.22;5053112;28;20049;-64
2023/01/12 04:01:55;;;;;;;9.75;2.60;;;;;;;8.84;88.17;99625.53;5052660;28;20434;-64
2023/01/12 04:04:23;;;;;;;10.13;2.67;;;;;;;8.95;88.45;99603.81;5052447;28;20064;-64
2023/01/12 04:06:51;;;;;;;9.38;2.47;;;;;;;8.96;88.57;99615.72;5063941;28;20056;-64
2023/01/12 04:09:21;;;;;;;6.68;2.70;;;;;;;8.92;88.94;99608.06;5072628;28;20051;-64
2023/01/12 04:14:36;;;;;;;12.70;2.55;;;;;;;8.81;89.94;99598.38;5060009;28;19927;-64
2023/01/12 04:17:06;;;;;;;9.13;2.60;;;;;;;8.77;89.96;99625.16;5064986;28;20490;-64
2023/01/12 04:19:36;;;;;;;11.68;2.85;;;;;;;8.80;88.79;99599.53;5072671;28;20059;-64
2023/01/12 04:24:49;;;;;;;9.18;2.97;;;;;;;8.90;89.22;99598.41;5078445;28;20483;-65
2023/01/12 04:27:17;;;;;;;6.38;2.33;;;;;;;8.79;87.91;99584.00;5072383;28;20489;-65
2023/01/12 04:29:45;;;;;;;8.90;2.63;;;;;;;8.82;87.64;99571.44;5057507;28;20049;-65
2023/01/12 04:32:12;;;;;;;6.28;2.20;;;;;;;8.88;87.16;99584.03;5050830;28;20053;-65
2023/01/12 04:34:39;;;;;;;6.57;2.08;;;;;;;8.84;87.57;99580.25;5070572;28;20056;-66
2023/01/12 04:37:08;;;;;;;7.90;1.65;;;;;;;8.76;88.94;99589.38;5065055;28;20052;-66
2023/01/12 04:39:35;;;;;;;7.80;1.98;;;;;;;8.70;88.84;99569.31;5072336;28;20049;-67
2023/01/12 04:42:02;;;;;;;5.72;1.60;;;;;;;8.89;89.19;99571.78;5072202;28;20053;-66
2023/01/12 04:44:31;;;;;;;9.07;2.40;;;;;;;8.75;90.21;99563.59;5072182;28;20055;-67
2023/01/12 04:46:58;;;;;;;8.68;1.88;;;;;;;8.74;89.42;99554.44;5067881;28;20056;-68
2023/01/12 04:49:25;;;;;;;6.90;2.08;;;;;;;8.70;89.02;99559.03;5072445;28;20075;-67
2023/01/12 04:51:52;;;;;;;4.35;1.88;;;;;;;8.78;88.31;99582.41;5062684;28;20045;-67
2023/01/12 04:54:21;;;;;;;4.85;2.03;;;;;;;8.80;88.24;99569.00;5052172;28;20048;-68
2023/01/12 04:56:48;;;;;;;5.30;1.65;;;;;;;8.76;89.25;99547.75;5052162;28;20057;-68
2023/01/12 04:59:15;;;;;;;8.30;2.30;;;;;;;8.75;90.66;99530.28;5051980;28;20053;-66
2023/01/12 05:01:43;;;;;;;6.90;2.88;;;;;;;8.73;91.67;99547.28;5061259;28;20056;-68
2023/01/12 05:04:10;;;;;;;5.85;2.00;;;;;;;8.52;91.32;99530.44;5071703;28;20057;-67
2023/01/12 05:06:37;;;;;;;7.20;2.10;;;;;;;8.53;92.98;99568.13;5064517;28;20059;-67
2023/01/12 05:11:50;;;;;;;6.78;2.20;;;;;;;8.41;92.26;99523.53;5073210;28;20066;-67
2023/01/12 05:14:17;;;;;;;6.28;1.67;;;;;;;8.39;93.11;99520.22;5071278;28;20457;-67
2023/01/12 05:16:45;;;;;;;7.40;2.03;;;;;;;8.34;92.62;99506.53;5059693;28;20052;-66
2023/01/12 05:19:12;;;;;;;5.53;2.00;;;;;;;8.39;91.78;99523.00;5068241;28;20075;-68
2023/01/12 05:21:39;;;;;;;5.47;1.92;;;;;;;8.38;91.52;99501.13;5065736;28;20049;-70
2023/01/12 05:24:08;;;;;;;7.30;2.10;;;;;;;8.43;93.53;99515.69;5071627;28;20052;-68
2023/01/12 05:26:35;;;;;;;6.43;2.15;;;;;;;8.43;93.10;99489.91;5072158;28;20516;-68
2023/01/12 05:29:04;;;;;;;4.68;2.10;;;;;;;8.28;94.63;99503.06;5071812;28;20059;-68
2023/01/12 05:31:34;;;;;;;8.40;1.73;;;;;;;8.31;94.56;99485.78;5070305;28;20055;-68
2023/01/12 05:34:01;;;;;;;;;;;;;;;8.25;95.70;99484.31;5072554;28;20093;-68
2023/01/12 05:36:28;;;;;;;5.95;1.50;;;;;;;8.19;98.09;99487.53;5064911;28;19929;-69
2023/01/12 05:38:56;;;;;;;5.10;1.50;;;;;;;8.17;97.14;99473.19;5071806;28;20053;-69
2023/01/12 05:41:23;;;;;;;4.25;1.85;;;;;;;8.11;99.19;99465.03;5071696;28;20056;-69
2023/01/12 05:43:49;;;;;;;7.03;1.80;;;;;;;8.09;99.83;99466.50;5071943;28;20059;-69
2023/01/12 05:46:20;;;;;;;13.27;2.40;;;;;;;8.06;100.00;99467.97;5071679;28;20056;-70
2023/01/12 05:48:47;;;;;;;24.30;2.70;;;;;;;7.98;100.00;99476.22;5071865;28;20056;-69
2023/01/12 05:51:15;;;;;;;10.88;1.95;;;;;;;7.96;100.00;99457.16;5054415;28;20040;-68
2023/01/12 05:53:45;;;;;;;8.25;1.85;;;;;;;7.84;100.00;99456.97;5052872;28;20044;-68
2023/01/12 05:56:17;;;;;;;7.13;2.50;;;;;;;7.95;100.00;99433.34;5050697;28;20049;-67
2023/01/12 05:58:49;;;;;;;6.80;1.90;;;;;;;7.91;100.00;99462.84;5052400;28;20052;-67
2023/01/12 06:01:18;;;;;;;4.70;1.73;;;;;;;7.99;100.00;99434.31;5050445;28;20080;-67
2023/01/12 06:03:52;;;;;;;7.35;1.80;;;;;;;7.86;100.00;99449.13;5051006;28;20048;-68
2023/01/12 06:06:20;;;;;;;7.65;1.88;;;;;;;7.83;100.00;99450.59;5065906;28;20071;-68
2023/01/12 06:08:51;;;;;;;4.35;1.20;;;;;;;7.87;100.00;99432.19;5071717;28;20053;-68
2023/01/12 06:14:04;;;;;;;4.57;1.50;;;;;;;7.79;100.00;99440.44;5076433;28;20064;-68
2023/01/12 06:16:33;;;;;;;3.63;1.33;;;;;;;7.79;100.00;99465.41;5056483;28;20064;-68
2023/01/12 06:19:01;;;;;;;5.17;1.30;;;;;;;7.83;100.00;99417.34;5053238;28;20051;-68
2023/01/12 06:21:28;;;;;;;7.05;1.88;;;;;;;7.96;100.00;99423.03;5061508;28;20045;-67
2023/01/12 06:23:55;;;;;;;4.65;1.50;;;;;;;8.00;100.00;99419.34;5050627;28;20075;-67
2023/01/12 06:26:23;;;;;;;2.17;1.02;;;;;;;7.80;100.00;99419.94;5050832;28;20045;-67
2023/01/12 06:28:50;;;;;;;3.53;1.13;;;;;;;7.84;100.00;99409.81;5051667;28;20057;-67
2023/01/12 06:31:17;;;;;;;4.50;1.20;;;;;;;7.78;100.00;99411.13;5053067;28;20049;-67
2023/01/12 06:33:46;;;;;;;3.28;0.82;;;;;;;7.68;100.00;99401.13;5053954;28;20068;-67
2023/01/12 06:36:16;;;;;;;5.55;1.30;;;;;;;7.69;100.00;99386.97;5050943;28;20513;-67
2023/01/12 06:38:44;;;;;;;5.28;1.00;;;;;;;7.67;100.00;99400.31;5054477;28;20425;-67
2023/01/12 06:42:27;;;;;;;4.85;1.23;;;;;;;7.72;100.00;99385.50;5050440;28;20493;-66
2023/01/12 06:44:00;;;;;;;5.63;1.13;;;;;;;7.83;100.00;99394.31;5052002;28;20056;-65
2023/01/12 06:46:28;;;;;;;3.22;1.00;;;;;;;7.86;100.00;99380.63;5053904;28;20056;-64
2023/01/12 06:48:57;;;;;;;3.45;0.90;;;;;;;7.73;100.00;99389.91;5054476;28;20053;-66
2023/01/12 06:51:25;;;;;;;7.95;1.30;;;;;;;7.86;100.00;99372.31;5057341;28;20052;-64
2023/01/12 06:53:52;;;;;;;3.75;1.30;;;;;;;7.82;100.00;99378.84;5054394;28;20048;-66
2023/01/12 06:56:19;;;;;;;4.55;0.90;;;;;;;7.86;100.00;99386.19;5054183;28;20060;-66
2023/01/12 06:58:46;;;;;;;2.50;1.10;;;;;;;7.87;100.00;99373.97;5054257;28;20406;-65
2023/01/12 07:01:14;;;;;;;2.85;1.00;;;;;;;7.78;100.00;99372.31;5053545;28;20055;-65
2023/01/12 07:03:42;;;;;;;4.63;1.13;;;;;;;7.86;100.00;99382.59;5059662;28;20056;-65
2023/01/12 07:06:13;;;;;;;2.65;1.15;;;;;;;7.94;100.00;99376.25;5064822;28;20056;-65
2023/01/12 07:08:41;;;;;;;6.13;1.05;;;;;;;7.90;100.00;99376.06;5074106;28;20053;-64
2023/01/12 07:11:11;;;;;;;5.05;1.15;;;;;;;7.87;100.00;99348.19;5073971;28;20055;-65
2023/01/12 07:13:41;;;;;;;2.70;0.80;;;;;;;7.96;100.00;99373.13;5071002;28;20072;-65
2023/01/12 07:16:11;;;;;;;2.65;0.80;;;;;;;7.92;100.00;99361.91;5054324;28;20056;-63
2023/01/12 07:18:38;;;;;;;4.68;1.00;;;;;;;7.83;100.00;99347.19;5053788;28;20052;-64
2023/01/12 07:21:12;;;;;;;2.10;0.70;;;;;;;7.89;100.00;99362.53;5060677;28;20045;-65
2023/01/12 07:23:40;;;;;;;2.05;0.90;;;;;;;7.98;100.00;99357.84;5072606;28;20060;-65
2023/01/12 07:26:08;;;;;;;1.45;0.63;;;;;;;8.03;100.00;99360.44;5074020;28;20067;-64
2023/01/12 07:28:35;;;;;;;1.58;0.85;;;;;;;7.99;100.00;99331.72;5073254;28;20512;-65
2023/01/12 07:31:04;;;;;;;3.10;0.90;;;;;;;7.93;100.00;99330.25;5072134;28;20048;-64
2023/01/12 07:33:33;;;;;;;3.28;1.58;;;;;;;8.00;100.00;99363.88;5043726;28;20056;-65
2023/01/12 07:36:01;;;;;;;1.38;0.93;;;;;;;8.04;100.00;99352.94;5050836;28;20056;-65
2023/01/12 07:38:30;;;;;;;2.85;0.93;;;;;;;8.04;100.00;99378.72;5048498;28;20409;-65
2023/01/12 07:40:58;;;;;;;6.93;1.08;;;;;;;7.98;100.00;99377.25;5049536;28;20405;-65
2023/01/12 07:43:26;;;;;;;4.25;1.17;;;;;;;7.99;100.00;99376.09;5046280;28;20045;-65
2023/01/12 07:45:55;;;;;;;2.45;1.05;;;;;;;7.99;100.00;99378.84;5042262;28;20052;-65
2023/01/12 07:48:23;;;;;;;2.90;1.10;;;;;;;8.07;100.00;99375.28;5050540;28;20049;-65
2023/01/12 07:50:51;;;;;;;4.78;1.00;;;;;;;8.01;100.00;99387.66;5046752;28;20059;-64
2023/01/12 07:53:21;;;;;;;3.08;1.45;;;;;;;8.14;100.00;99386.69;5049093;28;20444;-65
2023/01/12 07:55:53;;;;;;;2.20;1.02;;;;;;;8.10;100.00;99355.22;5052045;28;20049;-64
2023/01/12 07:58:20;;;;;;;2.35;1.17;;;;;;;8.13;100.00;99371.22;5051182;28;20055;-65
2023/01/12 08:00:47;;;;;;;4.00;1.13;;;;;;;8.12;100.00;99371.53;5050085;28;20053;-65
2023/01/12 08:03:14;;;;;;;2.42;1.00;;;;;;;8.20;100.00;99373.50;5049552;28;20049;-65
2023/01/12 08:05:42;;;;;;;2.17;1.20;;;;;;;8.19;100.00;99366.34;5054994;28;20048;-64
2023/01/12 08:08:09;;;;;;;3.28;1.38;;;;;;;8.23;100.00;99372.03;5051269;28;20053;-65
2023/01/12 08:10:36;;;;;;;2.72;1.40;;;;;;;8.23;100.00;99377.56;5052214;28;20053;-65
2023/01/12 08:13:07;;;;;;;2.08;1.42;;;;;;;8.28;100.00;99391.28;5050364;28;20044;-66
2023/01/12 08:15:38;;;;;;;2.65;1.30;;;;;;;8.31;100.00;99368.44;5050671;28;20075;-65
2023/01/12 08:18:12;;;;;;;5.10;1.60;;;;;;;8.38;100.00;99370.72;5059616;28;20060;-65
2023/01/12 08:20:39;;;;;;;3.38;1.58;;;;;;;8.43;100.00;99363.09;5071855;28;20057;-65
2023/01/12 08:23:10;;;;;;;5.72;1.33;;;;;;;8.42;100.00;99380.06;5056402;28;20064;-66
2023/01/12 08:25:43;;;;;;;5.40;1.58;;;;;;;8.49;100.00;99360.97;5052075;28;20060;-65
2023/01/12 08:28:19;;;;;;;2.58;1.25;;;;;;;8.36;100.00;99359.97;5056774;28;20565;-65
2023/01/12 08:30:49;;;;;;;5.00;1.83;;;;;;;8.49;100.00;99381.19;5049468;28;20063;-65
2023/01/12 08:33:16;;;;;;;2.40;1.50;;;;;;;8.60;100.00;99364.22;5052172;28;20045;-65
2023/01/12 08:35:48;;;;;;;3.78;1.98;;;;;;;8.56;100.00;99363.25;5052330;28;20053;-65
2023/01/12 08:38:18;;;;;;;9.68;2.72;;;;;;;8.66;100.00;99380.38;5049305;28;20060;-65
2023/01/12 08:46:16;;;;;;;6.75;2.28;;;;;;;8.71;100.00;99358.00;5051274;28;20071;-65
2023/01/12 08:48:43;;;;;;;3.25;1.73;;;;;;;8.74;100.00;99373.19;5058221;28;20071;-65
2023/01/12 08:51:10;;;;;;;8.68;3.28;;;;;;;8.69;100.00;99362.22;5068258;28;20052;-66
2023/01/12 08:53:38;;;;;;;3.80;2.17;;;;;;;8.69;100.00;99362.22;5051959;28;20060;-65
2023/01/12 08:56:06;;;;;;;10.60;3.10;;;;;;;8.82;100.00;99369.56;5051624;28;20048;-65
2023/01/12 08:58:34;;;;;;;5.55;2.17;;;;;;;8.78;100.00;99359.44;5050888;28;20044;-66
2023/01/12 09:01:07;;;;;;;3.90;2.13;;;;;;;8.83;100.00;99357.31;5055017;28;20057;-66
2023/01/12 09:03:34;;;;;;;4.72;2.55;;;;;;;8.75;100.00;99369.25;5047867;28;20045;-66
2023/01/12 09:06:08;;;;;;;3.83;1.77;;;;;;;8.84;100.00;99345.06;5052435;28;20057;-66
2023/01/12 09:08:36;;;;;;;3.20;2.05;;;;;;;9.03;100.00;99346.63;5055917;28;20056;-66
2023/01/12 09:11:03;;;;;;;7.85;3.85;;;;;;;9.23;100.00;99362.56;5072425;28;20401;-66
2023/01/12 09:13:32;;;;;;;10.05;2.58;;;;;;;9.11;100.00;99354.97;5050964;28;20413;-66
2023/01/12 09:16:03;;;;;;;4.15;1.95;;;;;;;9.06;100.00;99357.09;5050991;28;20056;-66
2023/01/12 09:18:31;;;;;;;4.50;2.05;;;;;;;9.25;100.00;99404.75;5052143;28;20056;-67
2023/01/12 09:21:02;;;;;;;4.57;2.17;;;;;;;9.19;100.00;99380.25;5063050;28;20409;-66
2023/01/12 09:23:29;;;;;;;6.18;2.22;;;;;;;9.25;100.00;99381.69;5050158;28;20053;-66
2023/01/12 09:25:56;;;;;;;4.50;3.03;;;;;;;9.37;100.00;99372.69;5050796;28;20049;-66
2023/01/12 09:28:24;;;;;;;5.80;2.55;;;;;;;9.37;100.00;99397.69;5050734;28;20049;-66
2023/01/12 09:30:51;;;;;;;8.60;2.45;;;;;;;9.26;100.00;99381.38;5050630;28;20418;-66
2023/01/12 09:33:20;;;;;;;4.03;2.42;;;;;;;9.41;100.00;99370.84;5054771;28;20053;-66
2023/01/12 09:35:48;;;;;;;4.25;2.40;;;;;;;9.34;100.00;99379.69;5049705;28;20053;-66
2023/01/12 09:38:16;;;;;;;6.93;2.60;;;;;;;9.29;100.00;99396.56;5050675;28;20053;-66
2023/01/12 09:40:44;;;;;;;5.18;2.60;;;;;;;9.31;100.00;99405.38;5049087;28;20052;-66
2023/01/12 09:48:45;;;;;;;6.65;2.30;;;;;;;9.52;100.00;99405.47;5067903;28;20072;-67
2023/01/12 09:51:29;;;;;;;4.22;2.22;;;;;;;9.64;100.00;99405.56;5061844;28;20045;-67
2023/01/12 09:53:56;;;;;;;5.22;2.15;;;;;;;9.62;100.00;99396.75;5055303;28;20049;-66
2023/01/12 09:56:31;;;;;;;4.75;1.90;;;;;;;9.66;100.00;99410.78;5052851;28;20068;-66
2023/01/12 09:59:26;;;;;;;3.20;1.92;;;;;;;9.74;100.00;99401.59;5051965;28;20163;-67
2023/01/12 10:01:53;;;;;;;5.07;2.10;;;;;;;9.86;100.00;99406.44;5049081;28;20053;-66
2023/01/12 10:04:22;;;;;;;4.22;2.05;;;;;;;9.88;100.00;99413.28;5062503;28;20490;-66
2023/01/12 10:06:49;;;;;;;4.23;1.77;;;;;;;9.87;100.00;99425.59;5068803;28;20060;-67
2023/01/12 10:09:20;;;;;;;4.38;2.00;;;;;;;9.92;100.00;99435.69;5063863;28;20479;-67
2023/01/12 10:11:55;;;;;;;4.53;2.80;;;;;;;10.11;100.00;99435.25;5053144;28;20049;-66
2023/01/12 10:14:37;;;;;;;3.17;2.08;;;;;;;10.11;100.00;99422.16;5054584;28;20053;-64
2023/01/12 10:17:17;;;;;;;4.22;2.53;;;;;;;10.15;100.00;99437.03;5062033;28;20509;-67
2023/01/12 10:19:52;;;;;;;2.80;2.15;;;;;;;10.22;100.00;99422.56;5073954;28;20059;-64
2023/01/12 10:22:36;;;;;;;3.03;1.70;;;;;;;10.23;100.00;99412.28;5053220;28;20045;-64
2023/01/12 10:25:13;;;;;;;2.70;1.40;;;;;;;10.18;100.00;99427.19;5054346;28;20421;-64
2023/01/12 10:27:44;;;;;;;3.00;1.50;;;;;;;10.21;100.00;99426.53;5051681;28;20044;-64
2023/01/12 10:30:14;;;;;;;4.25;1.70;;;;;;;10.32;99.51;99421.41;5052621;28;20068;-64
2023/01/12 10:32:42;;;;;;;3.13;1.20;;;;;;;10.38;97.33;99420.03;5055088;28;20049;-63
2023/01/12 10:35:16;;;;;;;2.25;1.67;;;;;;;10.46;95.98;99427.53;5054592;28;20052;-64
2023/01/12 10:37:44;;;;;;;4.53;1.67;;;;;;;10.47;94.99;99412.44;5054031;28;20053;-64
2023/01/12 10:40:28;;;;;;;2.23;1.40;;;;;;;10.50;94.48;99413.75;5053621;28;20493;-64
2023/01/12 10:43:22;;;;;;;4.80;1.95;;;;;;;10.54;93.73;99417.44;5050768;28;20052;-64
2023/01/12 10:46:13;;;;;;;3.42;1.67;;;;;;;10.57;94.71;99423.16;5052738;28;20048;-64
2023/01/12 10:48:42;;;;;;;2.88;1.83;;;;;;;10.58;93.58;99415.63;5054964;28;20136;-64
2023/01/12 10:51:22;;;;;;;2.58;1.70;;;;;;;10.69;92.97;99436.34;5053214;28;20478;-64
2023/01/12 10:53:54;;;;;;;6.40;2.00;;;;;;;10.72;92.69;99424.50;5053282;28;20053;-65
2023/01/12 10:56:29;;;;;;;3.85;1.75;;;;;;;10.69;93.17;99410.47;5052762;28;20063;-64
2023/01/12 10:59:00;;;;;;;3.40;1.88;;;;;;;10.75;92.41;99417.44;5071938;28;20052;-64
2023/01/12 11:01:46;;;;;;;3.38;2.25;;;;;;;10.73;92.69;99416.97;5053549;28;20049;-64
2023/01/12 11:04:15;;;;;;;3.08;1.40;;;;;;;10.62;92.24;99441.63;5050579;28;20056;-64
2023/01/12 11:06:46;;;;;;;3.33;2.15;;;;;;;10.78;92.29;99416.75;5046609;28;20044;-64
2023/01/12 11:09:23;;;;;;;3.13;1.90;;;;;;;10.76;92.16;99422.66;5052630;28;20052;-64
2023/01/12 11:11:55;;;;;;;3.05;1.65;;;;;;;10.81;92.81;99416.06;5050223;28;20048;-64
2023/01/12 11:14:28;;;;;;;3.88;1.83;;;;;;;10.86;93.05;99424.22;5049987;28;20052;-64
2023/01/12 11:17:06;;;;;;;3.03;1.90;;;;;;;10.90;92.80;99436.31;5049681;28;20053;-64
2023/01/12 11:19:39;;;;;;;2.38;1.25;;;;;;;10.95;92.52;99422.16;5048603;28;20045;-64
2023/01/12 11:22:16;;;;;;;4.63;1.92;;;;;;;11.00;92.45;99425.91;5050768;28;20053;-65
2023/01/12 11:24:48;;;;;;;3.47;1.65;;;;;;;10.94;91.95;99419.72;5048426;28;20493;-64
2023/01/12 11:27:22;;;;;;;4.20;1.60;;;;;;;11.06;91.72;99421.75;5051987;28;20407;-64
2023/01/12 11:29:57;;;;;;;2.83;1.73;;;;;;;11.04;91.90;99415.69;5051041;28;20416;-64
2023/01/12 11:32:42;;;;;;;4.70;1.73;;;;;;;10.98;92.09;99401.16;5050467;28;20048;-64
2023/01/12 11:35:26;;;;;;;2.15;1.35;;;;;;;10.85;91.91;99405.88;5048994;28;20053;-65
2023/01/12 11:38:00;;;;;;;3.05;1.17;;;;;;;10.86;90.90;99413.09;5053525;28;20497;-64
2023/01/12 11:40:31;;;;;;;3.15;1.48;;;;;;;10.93;90.87;99407.75;5051235;28;20041;-65
2023/01/12 11:45:54;;;;;;;2.10;1.60;;;;;;;10.89;91.46;99417.97;5050610;28;20060;-64
2023/01/12 11:48:27;;;;;;;3.13;1.50;;;;;;;10.95;91.63;99415.78;5048220;28;20049;-64
2023/01/12 11:50:58;;;;;;;3.28;1.90;;;;;;;10.97;91.66;99417.06;5048764;28;20052;-64
2023/01/12 11:53:26;;;;;;;3.17;1.40;;;;;;;10.96;91.88;99422.97;5050199;28;20049;-64
2023/01/12 11:56:08;;;;;;;2.67;1.30;;;;;;;10.96;91.92;99407.09;5049676;28;20056;-64
2023/01/12 11:58:47;;;;;;;3.65;1.38;;;;;;;10.92;91.87;99411.72;5049198;28;20069;-64
2023/01/12 12:01:23;;;;;;;2.75;1.67;;;;;;;10.92;92.32;99402.56;5049628;28;20056;-64
2023/01/12 12:03:58;;;;;;;3.65;2.00;;;;;;;10.87;92.75;99423.06;5049721;28;20397;-65
2023/01/12 12:06:44;;;;;;;2.53;1.40;;;;;;;10.84;91.93;99407.03;5042281;28;20053;-64
2023/01/12 12:09:31;;;;;;;5.50;1.77;;;;;;;10.89;92.38;99395.66;5048482;28;20049;-65
2023/01/12 12:12:04;;;;;;;2.97;1.83;;;;;;;10.83;92.44;99396.22;5046984;28;20075;-64
2023/01/12 12:14:53;;;;;;;3.22;1.75;;;;;;;10.89;92.51;99389.28;5047930;28;20054;-65
2023/01/12 12:17:28;;;;;;;4.20;1.85;;;;;;;10.86;92.27;99401.13;5052309;28;20052;-65
2023/01/12 12:20:07;;;;;;;3.45;1.77;;;;;;;10.84;92.11;99397.88;5051584;28;20048;-66
2023/01/12 12:22:49;;;;;;;7.55;2.20;;;;;;;10.97;92.42;99372.47;5058738;28;20056;-66
2023/01/12 12:25:28;;;;;;;3.92;2.33;;;;;;;10.99;92.57;99388.06;5059159;28;20049;-66
2023/01/12 12:28:09;;;;;;;3.75;1.83;;;;;;;10.94;93.24;99400.22;5043220;28;20064;-66
2023/01/12 12:30:58;;;;;;;3.53;1.60;;;;;;;11.03;93.06;99389.00;5065072;28;20478;-66
2023/01/12 12:33:34;;;;;;;2.85;1.42;;;;;;;10.96;91.63;99407.09;5051186;28;20095;-66